Time;durP1;ratioP1;P1;durP2;ratioP2;P2;SDS_P1;SDS_P2;PMS_P1;PMS_P2;Temp;Humidity;BMP_temperature;BMP_pressure;BME280_temperature;BME280_humidity;BME280_pressure;Samples;Min_cycle;Max_cycle;Signal;HPM_P1;HPM_P2
2022/07/29 00:00:16;;;;;;;;;;;30.40;36.20;;;;;;680817;29;793;-87
2022/07/29 00:00:36;;;;;;;;;;;30.40;36.10;;;;;;680333;29;1371;-88
2022/07/29 00:00:57;;;;;;;;;;;30.40;36.10;;;;;;680452;29;1210;-89
2022/07/29 00:01:17;;;;;;;;;;;30.40;36.20;;;;;;686099;28;1389;-89
2022/07/29 00:01:38;;;;;;;;;;;30.40;36.30;;;;;;688527;28;837;-89
2022/07/29 00:01:58;;;;;;;;;;;30.40;36.30;;;;;;688406;28;1324;-89
2022/07/29 00:02:19;;;;;;;;;;;30.40;36.30;;;;;;685818;28;1166;-89
2022/07/29 00:02:39;;;;;;;;;;;30.40;36.30;;;;;;685546;28;1321;-89
2022/07/29 00:03:00;;;;;;;;;;;30.40;36.30;;;;;;683285;29;784;-88
2022/07/29 00:03:20;;;;;;;;;;;30.40;36.30;;;;;;683308;29;828;-88
2022/07/29 00:03:41;;;;;;;;;;;30.40;37.30;;;;;;683120;29;1236;-89
2022/07/29 00:04:01;;;;;;;;;;;30.40;36.30;;;;;;683405;28;1343;-88
2022/07/29 00:04:22;;;;;;;;;;;30.40;36.30;;;;;;685651;28;823;-89
2022/07/29 00:04:42;;;;;;;;;;;30.40;36.40;;;;;;685759;28;1368;-89
2022/07/29 00:05:04;;;;;;;;;;;30.40;36.40;;;;;;685866;28;1328;-88
2022/07/29 00:05:24;;;;;;;;;;;30.40;36.30;;;;;;683112;29;1344;-89
2022/07/29 00:05:45;;;;;;;;;;;30.40;36.30;;;;;;683492;29;836;-88
2022/07/29 00:06:05;;;;;;;;;;;30.40;36.20;;;;;;683280;29;1910;-90
2022/07/29 00:06:26;;;;;;;;;;;30.40;36.20;;;;;;683501;28;1323;-87
2022/07/29 00:06:46;;;;;;;;;;;30.40;36.20;;;;;;685894;28;894;-88
2022/07/29 00:07:07;;;;;;;;;;;30.40;36.10;;;;;;688358;28;1334;-88
2022/07/29 00:07:28;;;;;;;;;;;30.40;36.10;;;;;;688685;28;807;-89
2022/07/29 00:07:48;;;;;;;;;;;30.40;36.10;;;;;;688435;28;954;-88
2022/07/29 00:08:09;;;;;;;;;;;30.40;36.20;;;;;;685728;28;1273;-88
2022/07/29 00:08:29;;;;;;;;;;;30.40;36.20;;;;;;685888;28;875;-88
2022/07/29 00:08:50;;;;;;;;;;;30.40;37.30;;;;;;685355;28;1297;-90
2022/07/29 00:09:10;;;;;;;;;;;30.40;36.10;;;;;;685796;28;1403;-90
2022/07/29 00:09:31;;;;;;;;;;;30.40;36.10;;;;;;685987;28;791;-89
2022/07/29 00:09:52;;;;;;;;;;;30.40;37.20;;;;;;686298;28;764;-88
2022/07/29 00:10:12;;;;;;;;;;;30.40;37.30;;;;;;688520;28;946;-89
2022/07/29 00:10:33;;;;;;;;;;;30.40;36.20;;;;;;688276;28;1261;-89
2022/07/29 00:10:54;;;;;;;;;;;30.40;36.20;;;;;;686193;28;914;-89
2022/07/29 00:11:14;;;;;;;;;;;30.40;36.30;;;;;;688533;28;831;-89
2022/07/29 00:11:35;;;;;;;;;;;30.40;36.20;;;;;;688596;28;799;-85
2022/07/29 00:11:57;;;;;;;;;;;30.40;36.20;;;;;;688499;28;1430;-88
2022/07/29 00:12:19;;;;;;;;;;;30.40;36.20;;;;;;688694;28;799;-89
2022/07/29 00:12:39;;;;;;;;;;;30.30;36.10;;;;;;688468;28;783;-89
2022/07/29 00:13:00;;;;;;;;;;;30.30;36.20;;;;;;688388;28;1217;-88
2022/07/29 00:13:21;;;;;;;;;;;30.40;36.30;;;;;;688574;28;1289;-88
2022/07/29 00:13:41;;;;;;;;;;;30.30;36.20;;;;;;687834;28;1359;-89
2022/07/29 00:14:02;;;;;;;;;;;30.30;36.20;;;;;;688478;28;1253;-89
2022/07/29 00:14:23;;;;;;;;;;;30.30;36.10;;;;;;688597;28;765;-89
2022/07/29 00:14:43;;;;;;;;;;;30.30;36.10;;;;;;688524;28;862;-89
2022/07/29 00:15:04;;;;;;;;;;;30.40;36.10;;;;;;688317;28;882;-89
2022/07/29 00:15:25;;;;;;;;;;;30.40;36.20;;;;;;686342;28;792;-85
2022/07/29 00:15:45;;;;;;;;;;;30.40;36.30;;;;;;685697;28;1292;-87
2022/07/29 00:16:06;;;;;;;;;;;30.40;36.20;;;;;;685979;28;787;-89
2022/07/29 00:16:26;;;;;;;;;;;30.40;36.20;;;;;;685894;28;827;-88
2022/07/29 00:16:47;;;;;;;;;;;30.40;36.20;;;;;;685966;28;787;-88
2022/07/29 00:17:11;;;;;;;;;;;30.40;36.20;;;;;;685730;28;1459;-90
2022/07/29 00:17:31;;;;;;;;;;;30.40;36.20;;;;;;686527;28;1336;-89
2022/07/29 00:17:52;;;;;;;;;;;30.40;36.20;;;;;;688551;28;795;-88
2022/07/29 00:18:12;;;;;;;;;;;30.40;36.30;;;;;;685755;28;961;-88
2022/07/29 00:18:33;;;;;;;;;;;30.40;36.30;;;;;;685751;28;1142;-89
2022/07/29 00:18:54;;;;;;;;;;;30.40;36.30;;;;;;685822;28;1261;-90
2022/07/29 00:19:14;;;;;;;;;;;30.30;36.20;;;;;;685805;28;796;-88
2022/07/29 00:19:35;;;;;;;;;;;30.40;36.20;;;;;;685881;28;781;-88
2022/07/29 00:19:56;;;;;;;;;;;30.40;37.30;;;;;;686067;28;839;-85
2022/07/29 00:20:16;;;;;;;;;;;30.40;36.20;;;;;;688251;28;1247;-86
2022/07/29 00:20:37;;;;;;;;;;;30.40;36.20;;;;;;685833;28;840;-86
2022/07/29 00:20:57;;;;;;;;;;;30.40;36.20;;;;;;686001;28;1372;-86
2022/07/29 00:21:18;;;;;;;;;;;30.40;36.30;;;;;;688429;28;1628;-89
2022/07/29 00:21:38;;;;;;;;;;;30.30;36.20;;;;;;688448;28;1217;-88
2022/07/29 00:21:59;;;;;;;;;;;30.40;36.40;;;;;;688405;28;1185;-90
2022/07/29 00:22:20;;;;;;;;;;;30.40;36.50;;;;;;685785;28;1386;-89
2022/07/29 00:22:40;;;;;;;;;;;30.40;36.40;;;;;;685395;28;1264;-89
2022/07/29 00:23:01;;;;;;;;;;;30.40;36.30;;;;;;683259;29;1214;-88
2022/07/29 00:23:22;;;;;;;;;;;30.40;36.20;;;;;;683301;29;803;-88
2022/07/29 00:23:43;;;;;;;;;;;30.40;36.40;;;;;;683081;28;911;-87
2022/07/29 00:24:03;;;;;;;;;;;30.40;36.40;;;;;;683380;28;1437;-88
2022/07/29 00:24:24;;;;;;;;;;;30.40;36.30;;;;;;685735;28;1329;-88
2022/07/29 00:24:44;;;;;;;;;;;30.40;36.40;;;;;;686260;28;1344;-89
2022/07/29 00:25:06;;;;;;;;;;;30.40;36.40;;;;;;688428;28;863;-87
2022/07/29 00:25:26;;;;;;;;;;;30.40;37.50;;;;;;688520;28;914;-87
2022/07/29 00:25:47;;;;;;;;;;;30.40;36.50;;;;;;687864;28;1279;-85
2022/07/29 00:26:07;;;;;;;;;;;30.40;37.50;;;;;;686058;28;1951;-88
2022/07/29 00:26:31;;;;;;;;;;;30.40;37.50;;;;;;685267;28;1123;-87
2022/07/29 00:26:52;;;;;;;;;;;30.40;36.50;;;;;;680543;29;1233;-86
2022/07/29 00:27:12;;;;;;;;;;;30.40;36.40;;;;;;680494;29;1340;-86
2022/07/29 00:27:33;;;;;;;;;;;30.40;36.50;;;;;;680417;29;1223;-86
2022/07/29 00:27:54;;;;;;;;;;;30.40;36.40;;;;;;680371;29;1179;-87
2022/07/29 00:28:14;;;;;;;;;;;30.40;36.50;;;;;;681180;29;1183;-86
2022/07/29 00:28:35;;;;;;;;;;;30.40;36.50;;;;;;680689;29;1238;-87
2022/07/29 00:28:55;;;;;;;;;;;30.40;36.50;;;;;;683086;29;1199;-87
2022/07/29 00:29:16;;;;;;;;;;;30.40;36.50;;;;;;683026;29;1332;-86
2022/07/29 00:29:36;;;;;;;;;;;30.40;36.50;;;;;;683168;29;1045;-87
2022/07/29 00:29:57;;;;;;;;;;;30.40;36.50;;;;;;683218;28;1388;-86
2022/07/29 00:30:17;;;;;;;;;;;30.40;36.50;;;;;;685831;28;1166;-86
2022/07/29 00:30:38;;;;;;;;;;;30.40;36.50;;;;;;688113;28;1366;-88
2022/07/29 00:30:59;;;;;;;;;;;30.40;36.50;;;;;;685680;28;1325;-88
2022/07/29 00:31:19;;;;;;;;;;;30.40;36.50;;;;;;685680;28;1200;-86
2022/07/29 00:31:40;;;;;;;;;;;30.40;36.40;;;;;;685399;28;1383;-89
2022/07/29 00:32:01;;;;;;;;;;;30.40;36.50;;;;;;682809;29;1232;-84
2022/07/29 00:32:22;;;;;;;;;;;30.40;36.70;;;;;;680497;29;839;-85
2022/07/29 00:32:42;;;;;;;;;;;30.40;36.60;;;;;;680343;29;943;-84
2022/07/29 00:33:03;;;;;;;;;;;30.40;36.60;;;;;;680781;29;804;-85
2022/07/29 00:33:23;;;;;;;;;;;30.40;36.60;;;;;;680679;29;1197;-90
2022/07/29 00:33:44;;;;;;;;;;;30.40;36.60;;;;;;683689;28;803;-93
2022/07/29 00:34:06;;;;;;;;;;;30.40;37.00;;;;;;683050;29;1314;-87
2022/07/29 00:35:45;;;;;;;;;;;30.50;37.80;;;;;;685786;28;614;-84
2022/07/29 00:36:06;;;;;;;;;;;30.50;37.80;;;;;;685733;28;824;-85
2022/07/29 00:36:27;;;;;;;;;;;30.50;37.80;;;;;;685629;28;1349;-85
2022/07/29 00:36:47;;;;;;;;;;;30.40;36.80;;;;;;685680;28;1424;-86
2022/07/29 00:37:08;;;;;;;;;;;30.40;36.70;;;;;;685746;28;835;-84
2022/07/29 00:37:28;;;;;;;;;;;30.40;36.70;;;;;;685655;28;906;-85
2022/07/29 00:37:49;;;;;;;;;;;30.40;36.60;;;;;;685637;28;1093;-86
2022/07/29 00:38:10;;;;;;;;;;;30.40;36.70;;;;;;685787;28;811;-85
2022/07/29 00:38:31;;;;;;;;;;;30.40;36.60;;;;;;685979;28;803;-85
2022/07/29 00:38:51;;;;;;;;;;;30.40;36.60;;;;;;685979;28;883;-86
2022/07/29 00:39:12;;;;;;;;;;;30.40;36.50;;;;;;685956;28;799;-86
2022/07/29 00:39:33;;;;;;;;;;;30.40;36.60;;;;;;686036;28;907;-93
2022/07/29 00:39:54;;;;;;;;;;;30.40;36.60;;;;;;686217;28;1437;-91
2022/07/29 00:40:15;;;;;;;;;;;30.40;36.60;;;;;;688230;28;1166;-83
2022/07/29 00:40:36;;;;;;;;;;;30.40;36.60;;;;;;688229;28;1349;-86
2022/07/29 00:40:56;;;;;;;;;;;30.40;36.60;;;;;;688519;28;863;-88
2022/07/29 00:41:17;;;;;;;;;;;30.40;36.60;;;;;;685742;28;1185;-86
2022/07/29 00:41:38;;;;;;;;;;;30.40;36.60;;;;;;685955;28;854;-86
2022/07/29 00:42:01;;;;;;;;;;;30.40;36.60;;;;;;685769;28;922;-86
2022/07/29 00:42:22;;;;;;;;;;;30.40;36.60;;;;;;685775;28;891;-88
2022/07/29 00:42:43;;;;;;;;;;;30.40;36.60;;;;;;685683;28;1315;-88
2022/07/29 00:43:03;;;;;;;;;;;30.50;37.70;;;;;;686641;28;812;-85
2022/07/29 00:43:24;;;;;;;;;;;30.50;37.70;;;;;;688693;28;834;-89
2022/07/29 00:43:45;;;;;;;;;;;32.70;38.30;;;;;;685859;28;843;-86
2022/07/29 00:44:05;;;;;;;;;;;30.40;37.10;;;;;;685266;28;1538;-84
2022/07/29 00:44:26;;;;;;;;;;;30.40;36.60;;;;;;685309;28;977;-86
2022/07/29 00:44:47;;;;;;;;;;;30.40;36.60;;;;;;682980;29;1361;-86
2022/07/29 00:45:07;;;;;;;;;;;30.40;36.70;;;;;;685685;28;1306;-84
2022/07/29 00:45:29;;;;;;;;;;;30.40;37.70;;;;;;686049;28;961;-84
2022/07/29 00:45:50;;;;;;;;;;;30.40;36.60;;;;;;688460;28;854;-89
2022/07/29 00:46:11;;;;;;;;;;;30.40;36.60;;;;;;688398;28;1968;-90
2022/07/29 00:46:31;;;;;;;;;;;30.40;36.60;;;;;;688361;28;1163;-90
2022/07/29 00:46:52;;;;;;;;;;;30.40;36.60;;;;;;688005;28;1483;-87
2022/07/29 00:47:13;;;;;;;;;;;30.40;36.60;;;;;;685629;28;1374;-89
2022/07/29 00:47:33;;;;;;;;;;;30.40;36.70;;;;;;685851;28;787;-88
2022/07/29 00:47:54;;;;;;;;;;;30.40;36.70;;;;;;685959;28;847;-89
2022/07/29 00:48:14;;;;;;;;;;;30.40;36.70;;;;;;686009;28;925;-87
2022/07/29 00:48:35;;;;;;;;;;;30.40;36.70;;;;;;685806;28;893;-82
2022/07/29 00:48:56;;;;;;;;;;;30.40;36.70;;;;;;685742;28;842;-85
2022/07/29 00:49:16;;;;;;;;;;;30.40;36.70;;;;;;685943;28;897;-86
2022/07/29 00:49:38;;;;;;;;;;;30.40;36.60;;;;;;685973;28;795;-86
2022/07/29 00:49:59;;;;;;;;;;;30.40;37.70;;;;;;686007;28;909;-87
2022/07/29 00:50:19;;;;;;;;;;;30.50;37.70;;;;;;685976;28;830;-87
2022/07/29 00:50:40;;;;;;;;;;;30.40;36.60;;;;;;685945;28;1404;-86
2022/07/29 00:51:01;;;;;;;;;;;30.40;37.60;;;;;;685964;28;886;-86
2022/07/29 00:51:22;;;;;;;;;;;30.50;37.70;;;;;;685966;28;843;-86
2022/07/29 00:51:42;;;;;;;;;;;30.40;36.70;;;;;;686033;28;850;-86
2022/07/29 00:52:04;;;;;;;;;;;30.50;37.90;;;;;;685924;28;973;-86
2022/07/29 00:52:25;;;;;;;;;;;30.40;36.70;;;;;;688343;28;1471;-83
2022/07/29 00:52:46;;;;;;;;;;;30.40;36.60;;;;;;688511;28;933;-84
2022/07/29 00:53:07;;;;;;;;;;;30.40;36.60;;;;;;688374;28;834;-86
2022/07/29 00:53:27;;;;;;;;;;;30.40;36.60;;;;;;688543;28;894;-85
2022/07/29 00:53:50;;;;;;;;;;;30.40;36.60;;;;;;688401;28;890;-87
2022/07/29 00:54:12;;;;;;;;;;;30.40;36.60;;;;;;687807;28;815;-87
2022/07/29 00:54:33;;;;;;;;;;;30.40;36.60;;;;;;685615;28;1249;-86
2022/07/29 00:54:54;;;;;;;;;;;30.40;36.60;;;;;;685764;28;899;-86
2022/07/29 00:55:15;;;;;;;;;;;30.40;36.60;;;;;;685551;28;1362;-87
2022/07/29 00:55:36;;;;;;;;;;;30.50;37.70;;;;;;685798;28;839;-85
2022/07/29 00:55:57;;;;;;;;;;;30.40;36.50;;;;;;685687;28;800;-85
2022/07/29 00:56:18;;;;;;;;;;;30.40;36.50;;;;;;686396;28;1452;-86
2022/07/29 00:56:38;;;;;;;;;;;30.40;36.50;;;;;;685593;28;1314;-86
2022/07/29 00:56:59;;;;;;;;;;;30.40;36.50;;;;;;685720;28;791;-86
2022/07/29 00:57:20;;;;;;;;;;;30.40;36.50;;;;;;685761;28;850;-86
2022/07/29 00:57:42;;;;;;;;;;;30.50;37.60;;;;;;685757;28;802;-85
2022/07/29 00:58:02;;;;;;;;;;;30.40;37.50;;;;;;685686;28;822;-84
2022/07/29 00:58:23;;;;;;;;;;;30.50;37.70;;;;;;685797;28;934;-86
2022/07/29 00:58:46;;;;;;;;;;;30.40;36.60;;;;;;686023;28;854;-85
2022/07/29 00:59:07;;;;;;;;;;;30.40;37.60;;;;;;685864;28;895;-85
2022/07/29 00:59:27;;;;;;;;;;;30.40;37.70;;;;;;685555;28;1361;-86
2022/07/29 00:59:48;;;;;;;;;;;30.40;36.50;;;;;;685719;28;910;-86
2022/07/29 01:00:10;;;;;;;;;;;30.40;37.60;;;;;;685794;28;799;-85
2022/07/29 01:00:31;;;;;;;;;;;30.40;37.50;;;;;;685675;28;866;-85
2022/07/29 01:00:52;;;;;;;;;;;30.50;37.60;;;;;;685755;28;985;-85
2022/07/29 01:01:12;;;;;;;;;;;30.40;36.60;;;;;;685722;28;487;-85
2022/07/29 01:01:33;;;;;;;;;;;30.40;36.60;;;;;;685961;28;949;-85
2022/07/29 01:01:54;;;;;;;;;;;30.40;36.60;;;;;;686016;28;933;-86
2022/07/29 01:02:15;;;;;;;;;;;30.40;36.60;;;;;;685978;28;831;-85
2022/07/29 01:02:36;;;;;;;;;;;30.40;37.70;;;;;;685856;28;937;-87
2022/07/29 01:02:56;;;;;;;;;;;30.40;37.70;;;;;;685888;28;1322;-87
2022/07/29 01:03:17;;;;;;;;;;;30.40;36.60;;;;;;685856;28;1299;-87
2022/07/29 01:03:37;;;;;;;;;;;30.40;36.50;;;;;;685601;28;910;-88
2022/07/29 01:03:58;;;;;;;;;;;30.40;36.60;;;;;;685706;28;878;-87
2022/07/29 01:04:19;;;;;;;;;;;30.40;36.50;;;;;;685747;28;854;-88
2022/07/29 01:04:40;;;;;;;;;;;30.40;36.60;;;;;;685702;28;823;-86
2022/07/29 01:05:01;;;;;;;;;;;30.40;36.50;;;;;;685615;28;1331;-87
2022/07/29 01:05:23;;;;;;;;;;;30.40;36.50;;;;;;686178;28;811;-88
2022/07/29 01:05:45;;;;;;;;;;;30.40;37.70;;;;;;688346;28;895;-87
2022/07/29 01:06:06;;;;;;;;;;;30.40;37.60;;;;;;688274;28;1957;-88
2022/07/29 01:06:26;;;;;;;;;;;30.50;37.70;;;;;;688453;28;933;-87
2022/07/29 01:06:48;;;;;;;;;;;30.40;36.60;;;;;;687752;28;810;-88
2022/07/29 01:07:09;;;;;;;;;;;30.40;37.60;;;;;;685911;28;518;-88
2022/07/29 01:07:30;;;;;;;;;;;30.50;37.70;;;;;;686107;28;835;-85
2022/07/29 01:07:52;;;;;;;;;;;30.40;36.70;;;;;;685665;28;1281;-85
2022/07/29 01:08:13;;;;;;;;;;;30.40;37.60;;;;;;686043;28;881;-85
2022/07/29 01:08:34;;;;;;;;;;;30.50;37.60;;;;;;685909;28;1303;-85
2022/07/29 01:08:55;;;;;;;;;;;30.40;37.60;;;;;;685971;28;847;-81
2022/07/29 01:09:17;;;;;;;;;;;30.50;37.80;;;;;;685980;28;811;-85
2022/07/29 01:09:38;;;;;;;;;;;30.40;37.60;;;;;;686035;28;874;-85
2022/07/29 01:09:58;;;;;;;;;;;30.40;36.70;;;;;;685955;28;783;-86
2022/07/29 01:10:19;;;;;;;;;;;30.40;36.70;;;;;;685884;28;867;-85
2022/07/29 01:10:41;;;;;;;;;;;30.40;37.70;;;;;;685975;28;815;-88
2022/07/29 01:11:02;;;;;;;;;;;30.40;37.90;;;;;;685990;28;866;-87
2022/07/29 01:11:22;;;;;;;;;;;30.50;37.80;;;;;;685974;28;973;-88
2022/07/29 01:11:43;;;;;;;;;;;30.40;36.60;;;;;;685564;28;1371;-88
2022/07/29 01:12:04;;;;;;;;;;;30.50;37.70;;;;;;685755;28;854;-86
2022/07/29 01:12:26;;;;;;;;;;;30.50;37.70;;;;;;685773;28;890;-80
2022/07/29 01:12:48;;;;;;;;;;;30.40;36.60;;;;;;685854;28;851;-85
2022/07/29 01:13:09;;;;;;;;;;;30.40;36.70;;;;;;685709;28;886;-85
2022/07/29 01:13:30;;;;;;;;;;;30.40;36.70;;;;;;685853;28;910;-86
2022/07/29 01:13:51;;;;;;;;;;;30.40;36.60;;;;;;685923;28;858;-88
2022/07/29 01:14:12;;;;;;;;;;;30.40;36.60;;;;;;686039;28;732;-87
2022/07/29 01:14:33;;;;;;;;;;;30.40;36.60;;;;;;686007;28;875;-86
2022/07/29 01:14:54;;;;;;;;;;;30.40;36.70;;;;;;686151;28;894;-88
2022/07/29 01:15:15;;;;;;;;;;;30.50;37.80;;;;;;686083;28;920;-85
2022/07/29 01:15:43;;;;;;;;;;;30.50;37.80;;;;;;686336;28;791;-86
2022/07/29 01:16:06;;;;;;;;;;;30.40;36.70;;;;;;686387;28;847;-89
2022/07/29 01:16:30;;;;;;;;;;;30.40;36.70;;;;;;686284;28;1302;-89
2022/07/29 01:16:53;;;;;;;;;;;30.40;37.70;;;;;;686123;28;1882;-89
2022/07/29 01:17:18;;;;;;;;;;;30.40;36.70;;;;;;686310;28;839;-89
2022/07/29 01:17:39;;;;;;;;;;;30.50;36.70;;;;;;686315;28;1338;-86
2022/07/29 01:18:05;;;;;;;;;;;30.40;36.70;;;;;;686349;28;1437;-87
2022/07/29 01:18:39;;;;;;;;;;;30.40;37.70;;;;;;686648;28;909;-86
2022/07/29 01:19:19;;;;;;;;;;;30.50;37.70;;;;;;686704;28;791;-86
2022/07/29 01:19:47;;;;;;;;;;;30.50;37.80;;;;;;687153;28;854;-86
2022/07/29 01:20:17;;;;;;;;;;;30.40;37.70;;;;;;686319;28;850;-89
2022/07/29 01:20:37;;;;;;;;;;;30.40;37.60;;;;;;686017;28;1014;-88
2022/07/29 01:21:07;;;;;;;;;;;30.40;37.70;;;;;;686233;28;883;-88
2022/07/29 01:21:43;;;;;;;;;;;30.40;37.60;;;;;;686525;28;950;-87
2022/07/29 01:22:22;;;;;;;;;;;30.40;37.80;;;;;;686375;28;890;-88
2022/07/29 01:22:49;;;;;;;;;;;30.40;37.80;;;;;;686637;28;898;-88
2022/07/29 01:23:19;;;;;;;;;;;30.40;36.80;;;;;;687306;28;842;-88
2022/07/29 01:23:42;;;;;;;;;;;30.40;37.70;;;;;;686844;28;883;-88
2022/07/29 01:24:08;;;;;;;;;;;30.40;37.60;;;;;;687041;28;807;-87
2022/07/29 01:24:32;;;;;;;;;;;30.40;37.70;;;;;;687085;28;851;-88
2022/07/29 01:25:03;;;;;;;;;;;30.40;36.80;;;;;;686942;28;1193;-88
2022/07/29 01:25:41;;;;;;;;;;;30.50;37.70;;;;;;686844;28;804;-90
2022/07/29 01:26:20;;;;;;;;;;;30.40;37.80;;;;;;687012;28;1936;-88
2022/07/29 01:26:42;;;;;;;;;;;30.40;36.80;;;;;;686764;28;847;-86
2022/07/29 01:27:05;;;;;;;;;;;30.40;37.70;;;;;;686668;28;850;-88
2022/07/29 01:27:46;;;;;;;;;;;30.40;37.70;;;;;;686918;28;836;-87
2022/07/29 01:28:25;;;;;;;;;;;30.40;36.70;;;;;;686421;28;1228;-88
2022/07/29 01:28:54;;;;;;;;;;;30.40;37.70;;;;;;686921;28;820;-84
2022/07/29 01:29:26;;;;;;;;;;;30.40;37.70;;;;;;687124;28;807;-86
2022/07/29 01:29:50;;;;;;;;;;;30.40;36.80;;;;;;687167;28;1021;-88
2022/07/29 01:30:10;;;;;;;;;;;30.40;37.70;;;;;;686878;28;994;-88
2022/07/29 01:30:32;;;;;;;;;;;30.40;36.70;;;;;;686684;28;886;-89
2022/07/29 01:30:53;;;;;;;;;;;30.40;37.70;;;;;;686885;28;827;-88
2022/07/29 01:31:20;;;;;;;;;;;30.40;37.70;;;;;;686237;28;906;-88
2022/07/29 01:31:40;;;;;;;;;;;30.40;36.70;;;;;;686906;28;855;-89
2022/07/29 01:32:03;;;;;;;;;;;30.40;36.80;;;;;;686770;28;1321;-88
2022/07/29 01:32:32;;;;;;;;;;;30.40;36.80;;;;;;687006;28;1001;-88
2022/07/29 01:32:55;;;;;;;;;;;30.40;37.70;;;;;;687175;28;902;-88
2022/07/29 01:34:00;;;;;;;;;;;30.40;36.80;;;;;;684464;29;1144;-87
2022/07/29 01:34:23;;;;;;;;;;;30.40;36.80;;;;;;684770;28;1279;-88
2022/07/29 01:34:49;;;;;;;;;;;30.40;36.70;;;;;;684374;29;1017;-86
2022/07/29 01:35:10;;;;;;;;;;;30.40;37.70;;;;;;683567;29;1030;-88
2022/07/29 01:35:33;;;;;;;;;;;30.40;37.70;;;;;;686179;28;1382;-88
2022/07/29 01:35:54;;;;;;;;;;;30.40;37.70;;;;;;686103;28;899;-87
2022/07/29 01:36:17;;;;;;;;;;;30.40;36.80;;;;;;686266;28;935;-87
2022/07/29 01:36:43;;;;;;;;;;;30.40;36.80;;;;;;686087;28;957;-87
2022/07/29 01:37:07;;;;;;;;;;;30.40;37.80;;;;;;685891;28;850;-88
2022/07/29 01:38:00;;;;;;;;;;;30.40;36.80;;;;;;683699;28;917;-88
2022/07/29 01:38:22;;;;;;;;;;;30.40;36.80;;;;;;685418;28;1347;-88
2022/07/29 01:38:45;;;;;;;;;;;30.40;36.80;;;;;;685545;28;1392;-88
2022/07/29 01:39:24;;;;;;;;;;;30.40;36.80;;;;;;685573;28;858;-86
2022/07/29 01:39:45;;;;;;;;;;;30.40;36.70;;;;;;685600;28;959;-87
2022/07/29 01:40:11;;;;;;;;;;;30.40;36.70;;;;;;685665;28;843;-87
2022/07/29 01:40:35;;;;;;;;;;;30.40;36.80;;;;;;685632;28;942;-88
2022/07/29 01:41:01;;;;;;;;;;;30.40;36.80;;;;;;685587;28;887;-84
2022/07/29 01:41:22;;;;;;;;;;;30.40;36.80;;;;;;685718;28;945;-88
2022/07/29 01:41:49;;;;;;;;;;;30.40;37.70;;;;;;685878;28;811;-88
2022/07/29 01:42:14;;;;;;;;;;;30.40;37.60;;;;;;685621;28;851;-88
2022/07/29 01:42:48;;;;;;;;;;;30.40;37.70;;;;;;685470;28;1103;-88
2022/07/29 01:43:23;;;;;;;;;;;31.20;38.40;;;;;;685602;28;985;-88
2022/07/29 01:43:43;;;;;;;;;;;30.40;36.70;;;;;;685581;28;808;-89
2022/07/29 01:44:11;;;;;;;;;;;30.40;36.80;;;;;;685674;28;883;-89
2022/07/29 01:44:37;;;;;;;;;;;30.40;37.70;;;;;;683535;28;1363;-87
2022/07/29 01:45:16;;;;;;;;;;;30.40;37.70;;;;;;682913;29;812;-88
2022/07/29 01:45:38;;;;;;;;;;;30.40;37.80;;;;;;682918;29;851;-87
2022/07/29 01:46:02;;;;;;;;;;;30.40;37.70;;;;;;682840;29;1898;-88
2022/07/29 01:46:33;;;;;;;;;;;30.40;37.70;;;;;;684168;28;1152;-86
2022/07/29 01:46:56;;;;;;;;;;;30.40;37.80;;;;;;685541;28;863;-86
2022/07/29 01:47:20;;;;;;;;;;;30.40;37.70;;;;;;685536;28;947;-88
2022/07/29 01:47:47;;;;;;;;;;;30.40;37.80;;;;;;685482;28;864;-88
2022/07/29 01:48:11;;;;;;;;;;;30.40;36.80;;;;;;685632;28;835;-88
2022/07/29 01:48:34;;;;;;;;;;;30.40;37.70;;;;;;685459;28;1168;-87
2022/07/29 01:48:57;;;;;;;;;;;30.40;37.90;;;;;;682954;28;883;-87
2022/07/29 01:49:21;;;;;;;;;;;30.40;36.90;;;;;;682928;29;1081;-87
2022/07/29 01:49:45;;;;;;;;;;;30.40;36.80;;;;;;683067;29;1347;-88
2022/07/29 01:50:07;;;;;;;;;;;30.40;37.80;;;;;;683477;29;836;-84
2022/07/29 01:50:32;;;;;;;;;;;30.40;37.80;;;;;;685354;28;926;-88
2022/07/29 01:50:58;;;;;;;;;;;30.40;37.70;;;;;;686075;28;926;-87
2022/07/29 01:51:21;;;;;;;;;;;30.40;36.80;;;;;;685935;28;1329;-87
2022/07/29 01:51:46;;;;;;;;;;;30.40;36.80;;;;;;686054;28;847;-89
2022/07/29 01:52:13;;;;;;;;;;;30.40;37.70;;;;;;686087;28;853;-88
2022/07/29 01:52:39;;;;;;;;;;;30.40;36.80;;;;;;686082;28;800;-88
2022/07/29 01:53:01;;;;;;;;;;;30.40;37.80;;;;;;686132;28;859;-86
2022/07/29 01:53:25;;;;;;;;;;;30.40;36.70;;;;;;685926;28;1389;-88
2022/07/29 01:53:50;;;;;;;;;;;30.40;36.80;;;;;;686014;28;866;-87
2022/07/29 01:54:14;;;;;;;;;;;30.40;37.70;;;;;;686038;28;878;-85
2022/07/29 01:54:34;;;;;;;;;;;30.40;37.80;;;;;;686020;28;843;-89
2022/07/29 01:54:57;;;;;;;;;;;30.30;36.70;;;;;;686065;28;953;-82
2022/07/29 01:55:19;;;;;;;;;;;30.40;37.80;;;;;;686128;28;1354;-88
2022/07/29 01:55:43;;;;;;;;;;;30.40;36.80;;;;;;685910;28;968;-89
2022/07/29 01:56:03;;;;;;;;;;;30.30;36.70;;;;;;686005;28;890;-88
2022/07/29 01:56:24;;;;;;;;;;;30.30;36.80;;;;;;686001;28;921;-89
2022/07/29 01:56:46;;;;;;;;;;;30.40;37.70;;;;;;683330;29;1133;-88
2022/07/29 01:57:08;;;;;;;;;;;30.40;36.70;;;;;;683283;29;1436;-88
2022/07/29 01:57:31;;;;;;;;;;;30.40;36.70;;;;;;683415;29;1341;-87
2022/07/29 01:57:52;;;;;;;;;;;30.40;36.70;;;;;;683376;29;828;-89
2022/07/29 01:58:13;;;;;;;;;;;30.40;36.70;;;;;;683316;29;934;-89
2022/07/29 01:58:35;;;;;;;;;;;30.40;36.70;;;;;;684440;28;1301;-89
2022/07/29 01:58:56;;;;;;;;;;;30.40;36.70;;;;;;686078;28;963;-88
2022/07/29 01:59:18;;;;;;;;;;;30.40;36.70;;;;;;685989;28;1107;-89
2022/07/29 01:59:40;;;;;;;;;;;30.40;36.70;;;;;;685979;28;863;-90
2022/07/29 02:00:00;;;;;;;;;;;30.40;36.70;;;;;;686056;28;879;-89
2022/07/29 02:00:21;;;;;;;;;;;30.30;36.60;;;;;;686040;28;918;-89
2022/07/29 02:00:44;;;;;;;;;;;30.40;37.80;;;;;;686039;28;958;-89
2022/07/29 02:01:05;;;;;;;;;;;30.40;37.70;;;;;;685982;28;887;-89
2022/07/29 02:01:26;;;;;;;;;;;30.40;37.70;;;;;;686044;28;1064;-84
2022/07/29 02:01:48;;;;;;;;;;;30.40;37.70;;;;;;686033;28;883;-88
2022/07/29 02:02:10;;;;;;;;;;;30.40;37.70;;;;;;685930;28;1084;-88
2022/07/29 02:02:32;;;;;;;;;;;30.40;37.80;;;;;;686060;28;983;-88
2022/07/29 02:02:53;;;;;;;;;;;30.40;37.70;;;;;;686089;28;951;-88
2022/07/29 02:03:15;;;;;;;;;;;30.40;37.70;;;;;;686116;28;523;-86
2022/07/29 02:03:37;;;;;;;;;;;30.40;37.70;;;;;;686008;28;832;-88
2022/07/29 02:03:59;;;;;;;;;;;30.40;37.60;;;;;;685973;28;855;-87
2022/07/29 02:04:20;;;;;;;;;;;30.40;37.70;;;;;;686080;28;1060;-89
2022/07/29 02:04:42;;;;;;;;;;;30.30;37.60;;;;;;686036;28;850;-87
2022/07/29 02:05:05;;;;;;;;;;;30.40;37.70;;;;;;686011;28;855;-89
2022/07/29 02:05:27;;;;;;;;;;;30.40;37.70;;;;;;686188;28;811;-88
2022/07/29 02:05:48;;;;;;;;;;;30.40;37.70;;;;;;685933;28;1073;-88
2022/07/29 02:06:09;;;;;;;;;;;30.40;37.80;;;;;;685919;28;1910;-89
2022/07/29 02:06:31;;;;;;;;;;;30.40;37.70;;;;;;686061;28;874;-88
2022/07/29 02:06:53;;;;;;;;;;;30.40;36.80;;;;;;685922;28;886;-87
2022/07/29 02:07:16;;;;;;;;;;;30.40;37.80;;;;;;686056;28;922;-88
2022/07/29 02:07:37;;;;;;;;;;;30.40;37.00;;;;;;685851;28;966;-88
2022/07/29 02:07:58;;;;;;;;;;;30.30;36.90;;;;;;686034;28;827;-88
2022/07/29 02:08:19;;;;;;;;;;;30.30;36.70;;;;;;686027;28;871;-88
2022/07/29 02:08:40;;;;;;;;;;;30.30;36.90;;;;;;685819;28;1358;-88
2022/07/29 02:09:02;;;;;;;;;;;30.30;36.70;;;;;;686061;28;887;-90
2022/07/29 02:09:23;;;;;;;;;;;30.30;36.70;;;;;;686014;28;804;-89
2022/07/29 02:09:44;;;;;;;;;;;30.30;36.70;;;;;;686063;28;887;-88
2022/07/29 02:10:06;;;;;;;;;;;30.30;36.80;;;;;;685995;28;737;-83
2022/07/29 02:10:28;;;;;;;;;;;30.30;36.70;;;;;;686060;28;838;-88
2022/07/29 02:10:49;;;;;;;;;;;30.30;36.80;;;;;;685880;28;890;-89
2022/07/29 02:11:10;;;;;;;;;;;30.40;37.90;;;;;;685861;28;1020;-89
2022/07/29 02:11:31;;;;;;;;;;;30.30;37.80;;;;;;685992;28;544;-88
2022/07/29 02:11:53;;;;;;;;;;;30.30;36.70;;;;;;686003;28;919;-89
2022/07/29 02:12:14;;;;;;;;;;;30.30;37.70;;;;;;683856;28;1408;-89
2022/07/29 02:12:35;;;;;;;;;;;30.30;37.50;;;;;;683313;29;865;-88
2022/07/29 02:12:56;;;;;;;;;;;30.30;37.60;;;;;;682734;29;1467;-87
2022/07/29 02:13:18;;;;;;;;;;;30.30;37.70;;;;;;683184;29;1199;-89
2022/07/29 02:13:41;;;;;;;;;;;30.30;37.70;;;;;;683490;29;855;-89
2022/07/29 02:14:03;;;;;;;;;;;30.30;36.80;;;;;;683344;29;890;-89
2022/07/29 02:14:24;;;;;;;;;;;30.30;36.80;;;;;;683284;29;879;-88
2022/07/29 02:14:47;;;;;;;;;;;30.30;36.80;;;;;;684427;28;812;-88
2022/07/29 02:15:08;;;;;;;;;;;30.30;36.70;;;;;;686278;28;1033;-87
2022/07/29 02:15:31;;;;;;;;;;;30.30;36.90;;;;;;685994;28;1219;-86
2022/07/29 02:15:53;;;;;;;;;;;30.30;36.70;;;;;;686095;28;795;-89
2022/07/29 02:16:15;;;;;;;;;;;30.30;37.90;;;;;;686207;28;898;-88
2022/07/29 02:16:36;;;;;;;;;;;30.30;36.70;;;;;;686048;28;816;-83
2022/07/29 02:16:58;;;;;;;;;;;30.30;36.60;;;;;;686037;28;819;-88
2022/07/29 02:17:27;;;;;;;;;;;30.30;36.60;;;;;;686152;28;867;-88